sensor_id;sensor_type;location;lat;lon;timestamp;P1;durP1;ratioP1;P2;durP2;ratioP2
61685;SDS011;47592;45.904;8.978;2023-10-13T00:01:53;20.08;;;13.77;;
61685;SDS011;47592;45.904;8.978;2023-10-13T00:04:19;22.45;;;14.18;;
61685;SDS011;47592;45.904;8.978;2023-10-13T00:06:48;21.05;;;14.50;;
61685;SDS011;47592;45.904;8.978;2023-10-13T00:09:13;20.67;;;13.35;;
61685;SDS011;47592;45.904;8.978;2023-10-13T00:11:42;19.58;;;13.43;;
61685;SDS011;47592;45.904;8.978;2023-10-13T00:14:12;26.98;;;13.80;;
61685;SDS011;47592;45.904;8.978;2023-10-13T00:16:41;21.48;;;12.73;;
61685;SDS011;47592;45.904;8.978;2023-10-13T00:19:06;23.52;;;12.85;;
61685;SDS011;47592;45.904;8.978;2023-10-13T00:21:31;21.73;;;13.40;;
61685;SDS011;47592;45.904;8.978;2023-10-13T00:23:57;17.10;;;11.97;;
61685;SDS011;47592;45.904;8.978;2023-10-13T00:26:25;21.15;;;13.75;;
61685;SDS011;47592;45.904;8.978;2023-10-13T00:28:57;21.63;;;13.23;;
61685;SDS011;47592;45.904;8.978;2023-10-13T00:31:42;21.33;;;13.68;;
61685;SDS011;47592;45.904;8.978;2023-10-13T00:34:13;21.15;;;13.95;;
61685;SDS011;47592;45.904;8.978;2023-10-13T00:36:45;19.45;;;13.18;;
61685;SDS011;47592;45.904;8.978;2023-10-13T00:39:28;20.50;;;13.98;;
61685;SDS011;47592;45.904;8.978;2023-10-13T00:41:54;21.30;;;13.20;;
61685;SDS011;47592;45.904;8.978;2023-10-13T00:44:31;22.85;;;14.00;;
61685;SDS011;47592;45.904;8.978;2023-10-13T00:47:07;20.15;;;13.57;;
61685;SDS011;47592;45.904;8.978;2023-10-13T00:49:37;24.15;;;14.98;;
61685;SDS011;47592;45.904;8.978;2023-10-13T00:52:08;19.40;;;13.50;;
61685;SDS011;47592;45.904;8.978;2023-10-13T00:54:36;20.98;;;14.20;;
61685;SDS011;47592;45.904;8.978;2023-10-13T00:57:04;24.27;;;13.70;;
61685;SDS011;47592;45.904;8.978;2023-10-13T00:59:32;20.20;;;13.57;;
61685;SDS011;47592;45.904;8.978;2023-10-13T01:02:02;24.13;;;13.25;;
61685;SDS011;47592;45.904;8.978;2023-10-13T01:04:47;22.65;;;12.52;;
61685;SDS011;47592;45.904;8.978;2023-10-13T01:07:15;21.75;;;13.20;;
61685;SDS011;47592;45.904;8.978;2023-10-13T01:09:47;20.38;;;12.55;;
61685;SDS011;47592;45.904;8.978;2023-10-13T01:12:12;23.08;;;13.68;;
61685;SDS011;47592;45.904;8.978;2023-10-13T01:14:39;24.88;;;13.32;;
61685;SDS011;47592;45.904;8.978;2023-10-13T01:17:05;22.25;;;13.40;;
61685;SDS011;47592;45.904;8.978;2023-10-13T01:19:30;20.70;;;12.33;;
61685;SDS011;47592;45.904;8.978;2023-10-13T01:22:04;23.17;;;13.05;;
61685;SDS011;47592;45.904;8.978;2023-10-13T01:24:31;21.13;;;12.50;;
61685;SDS011;47592;45.904;8.978;2023-10-13T01:26:59;22.42;;;13.02;;
61685;SDS011;47592;45.904;8.978;2023-10-13T01:29:45;20.17;;;13.60;;
61685;SDS011;47592;45.904;8.978;2023-10-13T01:32:16;24.65;;;13.35;;
61685;SDS011;47592;45.904;8.978;2023-10-13T01:34:42;20.92;;;13.38;;
61685;SDS011;47592;45.904;8.978;2023-10-13T01:37:11;19.77;;;12.90;;
61685;SDS011;47592;45.904;8.978;2023-10-13T01:39:36;19.42;;;12.43;;
61685;SDS011;47592;45.904;8.978;2023-10-13T01:42:04;22.65;;;13.38;;
61685;SDS011;47592;45.904;8.978;2023-10-13T01:44:33;19.65;;;12.55;;
61685;SDS011;47592;45.904;8.978;2023-10-13T01:46:59;21.33;;;12.73;;
61685;SDS011;47592;45.904;8.978;2023-10-13T01:49:27;19.92;;;12.75;;
61685;SDS011;47592;45.904;8.978;2023-10-13T01:51:52;19.35;;;11.93;;
61685;SDS011;47592;45.904;8.978;2023-10-13T01:54:18;18.88;;;12.32;;
61685;SDS011;47592;45.904;8.978;2023-10-13T01:56:46;20.40;;;11.82;;
61685;SDS011;47592;45.904;8.978;2023-10-13T01:59:14;20.75;;;12.40;;
61685;SDS011;47592;45.904;8.978;2023-10-13T02:01:40;19.92;;;11.30;;
61685;SDS011;47592;45.904;8.978;2023-10-13T02:04:07;19.42;;;12.10;;
61685;SDS011;47592;45.904;8.978;2023-10-13T02:06:33;17.45;;;12.07;;
61685;SDS011;47592;45.904;8.978;2023-10-13T02:09:02;20.48;;;12.65;;
61685;SDS011;47592;45.904;8.978;2023-10-13T02:11:36;20.27;;;12.43;;
61685;SDS011;47592;45.904;8.978;2023-10-13T02:14:02;17.45;;;11.90;;
61685;SDS011;47592;45.904;8.978;2023-10-13T02:16:32;20.13;;;12.48;;
61685;SDS011;47592;45.904;8.978;2023-10-13T02:18:58;18.65;;;12.30;;
61685;SDS011;47592;45.904;8.978;2023-10-13T02:21:31;19.02;;;12.73;;
61685;SDS011;47592;45.904;8.978;2023-10-13T02:23:57;19.40;;;12.32;;
61685;SDS011;47592;45.904;8.978;2023-10-13T02:26:26;20.83;;;12.60;;
61685;SDS011;47592;45.904;8.978;2023-10-13T02:28:58;18.70;;;11.93;;
61685;SDS011;47592;45.904;8.978;2023-10-13T02:31:23;18.90;;;12.93;;
61685;SDS011;47592;45.904;8.978;2023-10-13T02:33:52;20.25;;;13.32;;
61685;SDS011;47592;45.904;8.978;2023-10-13T02:36:18;19.17;;;12.73;;
61685;SDS011;47592;45.904;8.978;2023-10-13T02:41:16;20.03;;;12.83;;
61685;SDS011;47592;45.904;8.978;2023-10-13T02:43:51;22.33;;;12.75;;
61685;SDS011;47592;45.904;8.978;2023-10-13T02:46:16;23.23;;;13.90;;
61685;SDS011;47592;45.904;8.978;2023-10-13T02:48:41;18.07;;;12.73;;
61685;SDS011;47592;45.904;8.978;2023-10-13T02:51:08;19.52;;;13.25;;
61685;SDS011;47592;45.904;8.978;2023-10-13T02:53:46;22.13;;;13.45;;
61685;SDS011;47592;45.904;8.978;2023-10-13T02:56:17;25.75;;;14.27;;
61685;SDS011;47592;45.904;8.978;2023-10-13T02:58:49;20.15;;;13.45;;
61685;SDS011;47592;45.904;8.978;2023-10-13T03:01:18;22.40;;;13.63;;
61685;SDS011;47592;45.904;8.978;2023-10-13T03:03:48;20.38;;;13.45;;
61685;SDS011;47592;45.904;8.978;2023-10-13T03:06:19;23.08;;;13.20;;
61685;SDS011;47592;45.904;8.978;2023-10-13T03:08:49;19.45;;;12.68;;
61685;SDS011;47592;45.904;8.978;2023-10-13T03:11:16;16.67;;;11.90;;
61685;SDS011;47592;45.904;8.978;2023-10-13T03:13:46;18.23;;;12.23;;
61685;SDS011;47592;45.904;8.978;2023-10-13T03:16:12;20.38;;;13.50;;
61685;SDS011;47592;45.904;8.978;2023-10-13T03:18:41;17.00;;;12.15;;
61685;SDS011;47592;45.904;8.978;2023-10-13T03:21:16;21.52;;;13.77;;
61685;SDS011;47592;45.904;8.978;2023-10-13T03:23:52;21.27;;;13.63;;
61685;SDS011;47592;45.904;8.978;2023-10-13T03:26:19;22.00;;;13.00;;
61685;SDS011;47592;45.904;8.978;2023-10-13T03:28:46;18.70;;;13.27;;
61685;SDS011;47592;45.904;8.978;2023-10-13T03:31:17;20.73;;;12.30;;
61685;SDS011;47592;45.904;8.978;2023-10-13T03:33:48;21.35;;;12.63;;
61685;SDS011;47592;45.904;8.978;2023-10-13T03:36:14;18.85;;;12.88;;
61685;SDS011;47592;45.904;8.978;2023-10-13T03:38:59;19.17;;;12.55;;
61685;SDS011;47592;45.904;8.978;2023-10-13T03:41:24;20.20;;;11.90;;
61685;SDS011;47592;45.904;8.978;2023-10-13T03:43:55;22.10;;;12.65;;
61685;SDS011;47592;45.904;8.978;2023-10-13T03:46:32;19.95;;;12.77;;
61685;SDS011;47592;45.904;8.978;2023-10-13T03:48:58;21.90;;;12.27;;
61685;SDS011;47592;45.904;8.978;2023-10-13T03:51:26;19.92;;;12.32;;
61685;SDS011;47592;45.904;8.978;2023-10-13T03:56:22;20.08;;;12.50;;
61685;SDS011;47592;45.904;8.978;2023-10-13T03:59:03;20.15;;;11.40;;
61685;SDS011;47592;45.904;8.978;2023-10-13T04:01:32;19.13;;;12.07;;
61685;SDS011;47592;45.904;8.978;2023-10-13T04:04:04;16.98;;;11.32;;
61685;SDS011;47592;45.904;8.978;2023-10-13T04:06:34;23.17;;;12.50;;
61685;SDS011;47592;45.904;8.978;2023-10-13T04:09:14;22.45;;;11.95;;
61685;SDS011;47592;45.904;8.978;2023-10-13T04:11:49;19.33;;;11.95;;
61685;SDS011;47592;45.904;8.978;2023-10-13T04:14:35;19.33;;;11.48;;
61685;SDS011;47592;45.904;8.978;2023-10-13T04:17:19;19.08;;;11.30;;
61685;SDS011;47592;45.904;8.978;2023-10-13T04:19:49;20.45;;;12.13;;
61685;SDS011;47592;45.904;8.978;2023-10-13T04:25:25;19.40;;;10.93;;
61685;SDS011;47592;45.904;8.978;2023-10-13T04:28:07;17.98;;;11.07;;
61685;SDS011;47592;45.904;8.978;2023-10-13T04:30:41;20.52;;;11.55;;
61685;SDS011;47592;45.904;8.978;2023-10-13T04:33:22;18.23;;;11.30;;
61685;SDS011;47592;45.904;8.978;2023-10-13T04:38:47;20.48;;;11.35;;
61685;SDS011;47592;45.904;8.978;2023-10-13T04:44:11;16.42;;;10.43;;
61685;SDS011;47592;45.904;8.978;2023-10-13T04:46:48;19.00;;;11.05;;
61685;SDS011;47592;45.904;8.978;2023-10-13T04:49:13;19.80;;;10.80;;
61685;SDS011;47592;45.904;8.978;2023-10-13T04:54:35;19.85;;;10.95;;
61685;SDS011;47592;45.904;8.978;2023-10-13T04:57:24;18.90;;;11.30;;
61685;SDS011;47592;45.904;8.978;2023-10-13T04:59:59;20.10;;;11.13;;
61685;SDS011;47592;45.904;8.978;2023-10-13T05:02:40;19.95;;;10.98;;
61685;SDS011;47592;45.904;8.978;2023-10-13T05:07:30;16.77;;;10.20;;
61685;SDS011;47592;45.904;8.978;2023-10-13T05:10:14;18.90;;;10.50;;
61685;SDS011;47592;45.904;8.978;2023-10-13T05:13:01;19.10;;;9.82;;
61685;SDS011;47592;45.904;8.978;2023-10-13T05:15:48;18.52;;;10.07;;
61685;SDS011;47592;45.904;8.978;2023-10-13T05:18:32;17.83;;;10.27;;
61685;SDS011;47592;45.904;8.978;2023-10-13T05:21:17;19.73;;;11.15;;
61685;SDS011;47592;45.904;8.978;2023-10-13T05:24:00;20.95;;;10.40;;
61685;SDS011;47592;45.904;8.978;2023-10-13T05:26:44;20.05;;;10.27;;
61685;SDS011;47592;45.904;8.978;2023-10-13T05:29:28;18.02;;;9.85;;
61685;SDS011;47592;45.904;8.978;2023-10-13T05:32:12;21.05;;;11.20;;
61685;SDS011;47592;45.904;8.978;2023-10-13T05:34:56;14.77;;;9.50;;
61685;SDS011;47592;45.904;8.978;2023-10-13T05:37:40;18.08;;;9.45;;
61685;SDS011;47592;45.904;8.978;2023-10-13T05:40:24;15.80;;;9.65;;
61685;SDS011;47592;45.904;8.978;2023-10-13T05:43:08;16.80;;;10.05;;
61685;SDS011;47592;45.904;8.978;2023-10-13T05:45:52;17.90;;;10.63;;
61685;SDS011;47592;45.904;8.978;2023-10-13T05:48:36;16.65;;;9.95;;
61685;SDS011;47592;45.904;8.978;2023-10-13T05:51:20;20.63;;;10.20;;
61685;SDS011;47592;45.904;8.978;2023-10-13T05:54:01;18.35;;;10.18;;
61685;SDS011;47592;45.904;8.978;2023-10-13T05:56:39;19.20;;;9.77;;
61685;SDS011;47592;45.904;8.978;2023-10-13T05:59:23;16.05;;;10.10;;
61685;SDS011;47592;45.904;8.978;2023-10-13T06:02:07;19.38;;;9.93;;
61685;SDS011;47592;45.904;8.978;2023-10-13T06:04:51;18.83;;;10.05;;
61685;SDS011;47592;45.904;8.978;2023-10-13T06:07:35;16.25;;;9.85;;
61685;SDS011;47592;45.904;8.978;2023-10-13T06:10:19;14.95;;;9.73;;
61685;SDS011;47592;45.904;8.978;2023-10-13T06:13:03;19.50;;;10.13;;
61685;SDS011;47592;45.904;8.978;2023-10-13T06:15:47;21.35;;;10.80;;
61685;SDS011;47592;45.904;8.978;2023-10-13T06:18:31;21.92;;;11.02;;
61685;SDS011;47592;45.904;8.978;2023-10-13T06:21:15;19.70;;;10.45;;
61685;SDS011;47592;45.904;8.978;2023-10-13T06:23:59;21.55;;;9.90;;
61685;SDS011;47592;45.904;8.978;2023-10-13T06:26:45;20.65;;;10.80;;
61685;SDS011;47592;45.904;8.978;2023-10-13T06:29:30;17.88;;;10.48;;
61685;SDS011;47592;45.904;8.978;2023-10-13T06:31:55;18.00;;;9.57;;
61685;SDS011;47592;45.904;8.978;2023-10-13T06:34:22;17.02;;;9.68;;
61685;SDS011;47592;45.904;8.978;2023-10-13T06:37:02;18.60;;;9.57;;
61685;SDS011;47592;45.904;8.978;2023-10-13T06:39:27;19.77;;;10.02;;
61685;SDS011;47592;45.904;8.978;2023-10-13T06:42:02;16.85;;;9.32;;
61685;SDS011;47592;45.904;8.978;2023-10-13T06:44:30;16.67;;;9.45;;
61685;SDS011;47592;45.904;8.978;2023-10-13T06:46:59;18.42;;;9.75;;
61685;SDS011;47592;45.904;8.978;2023-10-13T06:49:29;16.70;;;9.65;;
61685;SDS011;47592;45.904;8.978;2023-10-13T06:51:55;16.92;;;9.50;;
61685;SDS011;47592;45.904;8.978;2023-10-13T06:54:25;15.73;;;10.02;;
61685;SDS011;47592;45.904;8.978;2023-10-13T06:56:50;16.30;;;9.50;;
61685;SDS011;47592;45.904;8.978;2023-10-13T06:59:17;16.02;;;9.32;;
61685;SDS011;47592;45.904;8.978;2023-10-13T07:01:42;14.67;;;9.17;;
61685;SDS011;47592;45.904;8.978;2023-10-13T07:04:10;18.67;;;9.80;;
61685;SDS011;47592;45.904;8.978;2023-10-13T07:06:41;18.45;;;9.75;;
61685;SDS011;47592;45.904;8.978;2023-10-13T07:09:15;19.77;;;9.75;;
61685;SDS011;47592;45.904;8.978;2023-10-13T07:12:01;15.10;;;8.98;;
61685;SDS011;47592;45.904;8.978;2023-10-13T07:14:27;13.93;;;9.20;;
61685;SDS011;47592;45.904;8.978;2023-10-13T07:16:56;16.58;;;9.65;;
61685;SDS011;47592;45.904;8.978;2023-10-13T07:19:25;15.88;;;8.70;;
61685;SDS011;47592;45.904;8.978;2023-10-13T07:21:54;14.55;;;9.02;;
61685;SDS011;47592;45.904;8.978;2023-10-13T07:24:23;14.93;;;9.43;;
61685;SDS011;47592;45.904;8.978;2023-10-13T07:26:49;17.10;;;9.20;;
61685;SDS011;47592;45.904;8.978;2023-10-13T07:29:22;16.48;;;9.32;;
61685;SDS011;47592;45.904;8.978;2023-10-13T07:31:52;17.08;;;9.65;;
61685;SDS011;47592;45.904;8.978;2023-10-13T07:34:17;15.80;;;9.20;;
61685;SDS011;47592;45.904;8.978;2023-10-13T07:36:56;17.25;;;9.20;;
61685;SDS011;47592;45.904;8.978;2023-10-13T07:39:25;18.23;;;9.43;;
61685;SDS011;47592;45.904;8.978;2023-10-13T07:41:51;18.00;;;10.13;;
61685;SDS011;47592;45.904;8.978;2023-10-13T07:44:19;15.27;;;9.10;;
61685;SDS011;47592;45.904;8.978;2023-10-13T07:46:50;18.80;;;9.80;;
61685;SDS011;47592;45.904;8.978;2023-10-13T07:49:23;17.83;;;9.43;;
61685;SDS011;47592;45.904;8.978;2023-10-13T07:51:50;15.00;;;9.73;;
61685;SDS011;47592;45.904;8.978;2023-10-13T07:54:22;14.73;;;9.10;;
61685;SDS011;47592;45.904;8.978;2023-10-13T07:56:47;13.57;;;8.87;;
61685;SDS011;47592;45.904;8.978;2023-10-13T07:59:12;14.32;;;8.38;;
61685;SDS011;47592;45.904;8.978;2023-10-13T08:01:42;16.77;;;9.18;;
61685;SDS011;47592;45.904;8.978;2023-10-13T08:04:11;17.23;;;8.82;;
61685;SDS011;47592;45.904;8.978;2023-10-13T08:06:39;17.70;;;9.50;;
61685;SDS011;47592;45.904;8.978;2023-10-13T08:09:06;14.95;;;9.05;;
61685;SDS011;47592;45.904;8.978;2023-10-13T08:11:55;22.37;;;8.93;;
61685;SDS011;47592;45.904;8.978;2023-10-13T08:14:22;16.65;;;9.25;;
61685;SDS011;47592;45.904;8.978;2023-10-13T08:16:51;14.65;;;9.52;;
61685;SDS011;47592;45.904;8.978;2023-10-13T08:19:25;13.52;;;8.43;;
61685;SDS011;47592;45.904;8.978;2023-10-13T08:22:07;15.82;;;8.50;;
61685;SDS011;47592;45.904;8.978;2023-10-13T08:24:44;19.42;;;9.30;;
61685;SDS011;47592;45.904;8.978;2023-10-13T08:27:09;19.02;;;9.23;;
61685;SDS011;47592;45.904;8.978;2023-10-13T08:29:43;16.25;;;9.10;;
61685;SDS011;47592;45.904;8.978;2023-10-13T08:34:49;17.45;;;8.85;;
61685;SDS011;47592;45.904;8.978;2023-10-13T08:37:17;13.93;;;8.00;;
61685;SDS011;47592;45.904;8.978;2023-10-13T08:39:52;15.68;;;8.85;;
61685;SDS011;47592;45.904;8.978;2023-10-13T08:42:35;14.32;;;7.88;;
61685;SDS011;47592;45.904;8.978;2023-10-13T08:47:59;13.85;;;7.47;;
61685;SDS011;47592;45.904;8.978;2023-10-13T08:50:38;14.63;;;7.50;;
61685;SDS011;47592;45.904;8.978;2023-10-13T08:56:04;15.13;;;7.93;;
61685;SDS011;47592;45.904;8.978;2023-10-13T08:58:29;14.10;;;7.85;;
61685;SDS011;47592;45.904;8.978;2023-10-13T09:01:15;17.23;;;7.53;;
61685;SDS011;47592;45.904;8.978;2023-10-13T09:04:01;17.67;;;7.78;;
61685;SDS011;47592;45.904;8.978;2023-10-13T09:06:52;16.17;;;8.07;;
61685;SDS011;47592;45.904;8.978;2023-10-13T09:12:20;13.73;;;7.10;;
61685;SDS011;47592;45.904;8.978;2023-10-13T09:14:51;14.70;;;7.20;;
61685;SDS011;47592;45.904;8.978;2023-10-13T09:17:23;14.88;;;7.65;;
61685;SDS011;47592;45.904;8.978;2023-10-13T09:20:07;17.25;;;8.00;;
61685;SDS011;47592;45.904;8.978;2023-10-13T09:22:45;13.18;;;7.38;;
61685;SDS011;47592;45.904;8.978;2023-10-13T09:25:21;14.07;;;7.68;;
61685;SDS011;47592;45.904;8.978;2023-10-13T09:27:48;15.23;;;7.60;;
61685;SDS011;47592;45.904;8.978;2023-10-13T09:30:18;15.15;;;7.63;;
61685;SDS011;47592;45.904;8.978;2023-10-13T09:32:47;13.65;;;7.15;;
61685;SDS011;47592;45.904;8.978;2023-10-13T09:35:20;16.57;;;8.07;;
61685;SDS011;47592;45.904;8.978;2023-10-13T09:37:52;14.25;;;7.88;;
61685;SDS011;47592;45.904;8.978;2023-10-13T09:40:21;18.10;;;8.48;;
61685;SDS011;47592;45.904;8.978;2023-10-13T09:43:05;16.42;;;8.27;;
61685;SDS011;47592;45.904;8.978;2023-10-13T09:45:33;16.52;;;7.80;;
61685;SDS011;47592;45.904;8.978;2023-10-13T09:48:04;13.18;;;7.80;;
61685;SDS011;47592;45.904;8.978;2023-10-13T09:50:41;15.65;;;7.82;;
61685;SDS011;47592;45.904;8.978;2023-10-13T09:53:09;14.93;;;7.40;;
61685;SDS011;47592;45.904;8.978;2023-10-13T09:58:07;14.33;;;7.47;;
61685;SDS011;47592;45.904;8.978;2023-10-13T10:00:37;15.93;;;7.72;;
61685;SDS011;47592;45.904;8.978;2023-10-13T10:03:31;15.27;;;7.50;;
61685;SDS011;47592;45.904;8.978;2023-10-13T10:05:59;16.08;;;8.63;;
61685;SDS011;47592;45.904;8.978;2023-10-13T10:08:31;12.95;;;7.82;;
61685;SDS011;47592;45.904;8.978;2023-10-13T10:13:47;15.02;;;7.82;;
61685;SDS011;47592;45.904;8.978;2023-10-13T10:16:20;15.00;;;8.07;;
61685;SDS011;47592;45.904;8.978;2023-10-13T10:18:58;12.13;;;7.78;;
61685;SDS011;47592;45.904;8.978;2023-10-13T10:21:32;15.63;;;8.18;;
61685;SDS011;47592;45.904;8.978;2023-10-13T10:23:57;14.85;;;7.82;;
61685;SDS011;47592;45.904;8.978;2023-10-13T10:26:24;15.37;;;8.17;;
61685;SDS011;47592;45.904;8.978;2023-10-13T10:28:50;16.15;;;9.10;;
61685;SDS011;47592;45.904;8.978;2023-10-13T10:31:15;13.02;;;7.90;;
61685;SDS011;47592;45.904;8.978;2023-10-13T10:33:44;13.90;;;7.80;;
61685;SDS011;47592;45.904;8.978;2023-10-13T10:36:11;13.38;;;7.80;;
61685;SDS011;47592;45.904;8.978;2023-10-13T10:39:13;15.63;;;8.35;;
61685;SDS011;47592;45.904;8.978;2023-10-13T10:41:32;15.27;;;7.50;;
61685;SDS011;47592;45.904;8.978;2023-10-13T10:44:15;15.68;;;8.20;;
61685;SDS011;47592;45.904;8.978;2023-10-13T10:46:41;14.45;;;8.02;;
61685;SDS011;47592;45.904;8.978;2023-10-13T10:49:19;13.18;;;7.95;;
61685;SDS011;47592;45.904;8.978;2023-10-13T10:51:58;14.93;;;7.30;;
61685;SDS011;47592;45.904;8.978;2023-10-13T10:54:26;15.43;;;7.63;;
61685;SDS011;47592;45.904;8.978;2023-10-13T10:56:56;14.82;;;7.32;;
61685;SDS011;47592;45.904;8.978;2023-10-13T10:59:25;15.45;;;7.95;;
61685;SDS011;47592;45.904;8.978;2023-10-13T11:01:50;14.70;;;7.88;;
61685;SDS011;47592;45.904;8.978;2023-10-13T11:04:18;15.77;;;8.20;;
61685;SDS011;47592;45.904;8.978;2023-10-13T11:06:52;13.73;;;8.27;;
61685;SDS011;47592;45.904;8.978;2023-10-13T11:09:28;17.40;;;8.30;;
61685;SDS011;47592;45.904;8.978;2023-10-13T11:12:17;15.00;;;8.88;;
61685;SDS011;47592;45.904;8.978;2023-10-13T11:15:04;15.63;;;8.05;;
61685;SDS011;47592;45.904;8.978;2023-10-13T11:17:40;15.60;;;7.97;;
61685;SDS011;47592;45.904;8.978;2023-10-13T11:20:13;15.95;;;9.10;;
61685;SDS011;47592;45.904;8.978;2023-10-13T11:22:47;20.35;;;9.05;;
61685;SDS011;47592;45.904;8.978;2023-10-13T11:25:25;13.65;;;8.05;;
61685;SDS011;47592;45.904;8.978;2023-10-13T11:28:12;13.68;;;8.20;;
61685;SDS011;47592;45.904;8.978;2023-10-13T11:31:01;14.90;;;7.80;;
61685;SDS011;47592;45.904;8.978;2023-10-13T11:33:35;14.23;;;8.13;;
61685;SDS011;47592;45.904;8.978;2023-10-13T11:36:01;20.35;;;8.55;;
61685;SDS011;47592;45.904;8.978;2023-10-13T11:38:29;15.90;;;8.10;;
61685;SDS011;47592;45.904;8.978;2023-10-13T11:41:06;17.73;;;7.97;;
61685;SDS011;47592;45.904;8.978;2023-10-13T11:46:09;14.77;;;7.85;;
61685;SDS011;47592;45.904;8.978;2023-10-13T11:48:36;15.40;;;8.20;;
61685;SDS011;47592;45.904;8.978;2023-10-13T11:51:01;15.77;;;8.65;;
61685;SDS011;47592;45.904;8.978;2023-10-13T11:53:32;13.73;;;8.43;;
61685;SDS011;47592;45.904;8.978;2023-10-13T11:55:57;14.02;;;7.72;;
61685;SDS011;47592;45.904;8.978;2023-10-13T11:58:23;14.90;;;7.97;;
61685;SDS011;47592;45.904;8.978;2023-10-13T12:00:48;15.10;;;7.90;;
61685;SDS011;47592;45.904;8.978;2023-10-13T12:03:18;15.65;;;7.90;;
61685;SDS011;47592;45.904;8.978;2023-10-13T12:06:02;16.02;;;7.97;;
61685;SDS011;47592;45.904;8.978;2023-10-13T12:09:06;14.05;;;8.05;;
61685;SDS011;47592;45.904;8.978;2023-10-13T12:11:41;13.55;;;8.00;;
61685;SDS011;47592;45.904;8.978;2023-10-13T12:14:10;15.90;;;8.85;;
61685;SDS011;47592;45.904;8.978;2023-10-13T12:16:44;14.85;;;8.15;;
61685;SDS011;47592;45.904;8.978;2023-10-13T12:21:41;13.20;;;8.05;;
61685;SDS011;47592;45.904;8.978;2023-10-13T12:24:09;15.57;;;7.68;;
61685;SDS011;47592;45.904;8.978;2023-10-13T12:26:37;16.52;;;7.65;;
61685;SDS011;47592;45.904;8.978;2023-10-13T12:31:32;17.27;;;7.60;;
61685;SDS011;47592;45.904;8.978;2023-10-13T12:33:58;15.23;;;7.53;;
61685;SDS011;47592;45.904;8.978;2023-10-13T12:36:31;14.20;;;7.25;;
61685;SDS011;47592;45.904;8.978;2023-10-13T12:39:06;13.15;;;7.32;;
61685;SDS011;47592;45.904;8.978;2023-10-13T12:41:31;11.77;;;7.57;;
61685;SDS011;47592;45.904;8.978;2023-10-13T12:44:15;15.05;;;8.07;;
61685;SDS011;47592;45.904;8.978;2023-10-13T12:46:59;13.40;;;7.40;;
61685;SDS011;47592;45.904;8.978;2023-10-13T12:49:42;16.33;;;8.05;;
61685;SDS011;47592;45.904;8.978;2023-10-13T12:52:08;14.17;;;7.90;;
61685;SDS011;47592;45.904;8.978;2023-10-13T12:54:50;13.60;;;7.82;;
61685;SDS011;47592;45.904;8.978;2023-10-13T12:57:21;13.85;;;7.90;;
61685;SDS011;47592;45.904;8.978;2023-10-13T12:59:50;12.13;;;7.93;;
61685;SDS011;47592;45.904;8.978;2023-10-13T13:02:19;13.30;;;8.55;;
61685;SDS011;47592;45.904;8.978;2023-10-13T13:04:45;16.65;;;8.50;;
61685;SDS011;47592;45.904;8.978;2023-10-13T13:07:13;16.40;;;7.93;;
61685;SDS011;47592;45.904;8.978;2023-10-13T13:09:40;13.20;;;8.75;;
61685;SDS011;47592;45.904;8.978;2023-10-13T13:12:06;15.10;;;8.05;;
61685;SDS011;47592;45.904;8.978;2023-10-13T13:14:31;14.93;;;8.60;;
61685;SDS011;47592;45.904;8.978;2023-10-13T13:17:01;14.02;;;8.25;;
61685;SDS011;47592;45.904;8.978;2023-10-13T13:19:33;15.32;;;8.05;;
61685;SDS011;47592;45.904;8.978;2023-10-13T13:22:08;15.77;;;8.30;;
61685;SDS011;47592;45.904;8.978;2023-10-13T13:24:43;14.48;;;8.13;;
61685;SDS011;47592;45.904;8.978;2023-10-13T13:27:11;14.57;;;8.50;;
61685;SDS011;47592;45.904;8.978;2023-10-13T13:29:44;13.43;;;7.97;;
61685;SDS011;47592;45.904;8.978;2023-10-13T13:32:12;15.80;;;7.93;;
61685;SDS011;47592;45.904;8.978;2023-10-13T13:34:50;17.38;;;8.57;;
61685;SDS011;47592;45.904;8.978;2023-10-13T13:37:34;14.73;;;8.32;;
61685;SDS011;47592;45.904;8.978;2023-10-13T13:39:59;12.95;;;8.73;;
61685;SDS011;47592;45.904;8.978;2023-10-13T13:42:40;12.77;;;8.85;;
61685;SDS011;47592;45.904;8.978;2023-10-13T13:45:08;15.52;;;8.55;;
61685;SDS011;47592;45.904;8.978;2023-10-13T13:47:46;16.25;;;8.50;;
61685;SDS011;47592;45.904;8.978;2023-10-13T13:50:11;14.27;;;8.27;;
61685;SDS011;47592;45.904;8.978;2023-10-13T13:52:42;15.02;;;8.40;;
61685;SDS011;47592;45.904;8.978;2023-10-13T13:55:11;15.32;;;8.63;;
61685;SDS011;47592;45.904;8.978;2023-10-13T13:57:42;14.75;;;8.63;;
61685;SDS011;47592;45.904;8.978;2023-10-13T14:00:08;17.70;;;8.90;;
61685;SDS011;47592;45.904;8.978;2023-10-13T14:02:34;13.57;;;8.20;;
61685;SDS011;47592;45.904;8.978;2023-10-13T14:05:01;16.80;;;9.50;;
61685;SDS011;47592;45.904;8.978;2023-10-13T14:07:27;13.52;;;8.63;;
61685;SDS011;47592;45.904;8.978;2023-10-13T14:10:00;15.43;;;8.60;;
61685;SDS011;47592;45.904;8.978;2023-10-13T14:12:31;19.83;;;8.57;;
61685;SDS011;47592;45.904;8.978;2023-10-13T14:15:09;13.85;;;9.07;;
61685;SDS011;47592;45.904;8.978;2023-10-13T14:17:47;13.93;;;8.65;;
61685;SDS011;47592;45.904;8.978;2023-10-13T14:20:14;14.65;;;9.73;;
61685;SDS011;47592;45.904;8.978;2023-10-13T14:22:45;15.23;;;8.90;;
61685;SDS011;47592;45.904;8.978;2023-10-13T14:25:16;13.55;;;8.25;;
61685;SDS011;47592;45.904;8.978;2023-10-13T14:27:41;17.30;;;8.73;;
61685;SDS011;47592;45.904;8.978;2023-10-13T14:30:07;13.53;;;8.40;;
61685;SDS011;47592;45.904;8.978;2023-10-13T14:32:32;14.68;;;8.82;;
61685;SDS011;47592;45.904;8.978;2023-10-13T14:34:57;13.33;;;9.00;;
61685;SDS011;47592;45.904;8.978;2023-10-13T14:37:25;14.75;;;8.43;;
61685;SDS011;47592;45.904;8.978;2023-10-13T14:39:57;13.05;;;9.05;;
61685;SDS011;47592;45.904;8.978;2023-10-13T14:42:28;15.52;;;8.63;;
61685;SDS011;47592;45.904;8.978;2023-10-13T14:44:53;16.23;;;9.00;;
61685;SDS011;47592;45.904;8.978;2023-10-13T14:47:22;13.90;;;8.75;;
61685;SDS011;47592;45.904;8.978;2023-10-13T14:49:50;16.42;;;9.05;;
61685;SDS011;47592;45.904;8.978;2023-10-13T14:52:19;15.63;;;9.80;;
61685;SDS011;47592;45.904;8.978;2023-10-13T14:54:44;15.27;;;9.43;;
61685;SDS011;47592;45.904;8.978;2023-10-13T14:57:12;14.70;;;9.17;;
61685;SDS011;47592;45.904;8.978;2023-10-13T14:59:38;18.40;;;9.35;;
61685;SDS011;47592;45.904;8.978;2023-10-13T15:02:04;13.52;;;9.52;;
61685;SDS011;47592;45.904;8.978;2023-10-13T15:04:29;15.05;;;9.77;;
61685;SDS011;47592;45.904;8.978;2023-10-13T15:07:00;12.63;;;9.23;;
61685;SDS011;47592;45.904;8.978;2023-10-13T15:09:28;21.00;;;8.95;;
61685;SDS011;47592;45.904;8.978;2023-10-13T15:11:54;17.30;;;9.65;;
61685;SDS011;47592;45.904;8.978;2023-10-13T15:14:19;15.55;;;10.00;;
61685;SDS011;47592;45.904;8.978;2023-10-13T15:16:48;14.43;;;9.63;;
61685;SDS011;47592;45.904;8.978;2023-10-13T15:19:13;14.63;;;9.27;;
61685;SDS011;47592;45.904;8.978;2023-10-13T15:21:38;15.47;;;9.27;;
61685;SDS011;47592;45.904;8.978;2023-10-13T15:24:05;15.68;;;8.63;;
61685;SDS011;47592;45.904;8.978;2023-10-13T15:26:41;16.75;;;9.30;;
61685;SDS011;47592;45.904;8.978;2023-10-13T15:29:10;15.80;;;9.13;;
61685;SDS011;47592;45.904;8.978;2023-10-13T15:31:37;17.30;;;9.48;;
61685;SDS011;47592;45.904;8.978;2023-10-13T15:34:03;16.42;;;8.98;;
61685;SDS011;47592;45.904;8.978;2023-10-13T15:36:38;16.35;;;9.55;;
61685;SDS011;47592;45.904;8.978;2023-10-13T15:39:04;14.18;;;9.45;;
61685;SDS011;47592;45.904;8.978;2023-10-13T15:41:33;16.77;;;9.30;;